Time;durP1;ratioP1;P1;durP2;ratioP2;P2;SDS_P1;SDS_P2;PMS_P1;PMS_P2;Temp;Humidity;BMP_temperature;BMP_pressure;BME280_temperature;BME280_humidity;BME280_pressure;Samples;Min_cycle;Max_cycle;Signal;HPM_P1;HPM_P2
2023/10/31 00:00:16;;;;;;;;;;;9.70;99.90;;;;;;5024960;28;19905;-84
2023/10/31 00:02:42;;;;;;;;;;;9.70;99.90;;;;;;5018442;28;20263;-85
2023/10/31 00:05:08;;;;;;;;;;;9.70;99.90;;;;;;5032948;28;20039;-84
2023/10/31 00:07:34;;;;;;;;;;;9.70;99.90;;;;;;5035672;28;19908;-83
2023/10/31 00:09:59;;;;;;;;;;;9.70;99.90;;;;;;5054172;28;20357;-85
2023/10/31 00:12:25;;;;;;;;;;;9.70;99.90;;;;;;5045814;28;20264;-85
2023/10/31 00:14:51;;;;;;;;;;;9.70;99.90;;;;;;5033837;28;20018;-83
2023/10/31 00:17:16;;;;;;;;;;;9.70;99.90;;;;;;5017192;28;19972;-85
2023/10/31 00:19:42;;;;;;;;;;;9.70;99.90;;;;;;5047030;28;19912;-85
2023/10/31 00:22:08;;;;;;;;;;;9.70;99.90;;;;;;5045972;28;19909;-85
2023/10/31 00:24:33;;;;;;;;;;;9.70;99.90;;;;;;5034666;28;19905;-83
2023/10/31 00:26:59;;;;;;;;;;;9.70;99.90;;;;;;5031615;28;20469;-83
2023/10/31 00:29:25;;;;;;;;;;;9.70;99.90;;;;;;5022245;28;19909;-85
2023/10/31 00:31:50;;;;;;;;;;;9.70;99.90;;;;;;5021653;28;19948;-84
2023/10/31 00:34:16;;;;;;;;;;;9.70;99.90;;;;;;5030252;28;19993;-85
2023/10/31 00:36:41;;;;;;;;;;;9.70;99.90;;;;;;5041736;28;19904;-84
2023/10/31 00:39:07;;;;;;;;;;;9.70;99.90;;;;;;5028633;28;20289;-84
2023/10/31 00:41:33;;;;;;;;;;;9.70;99.90;;;;;;5006422;28;19990;-83
2023/10/31 00:43:58;;;;;;;;;;;9.70;99.90;;;;;;5033661;28;19905;-85
2023/10/31 00:46:24;;;;;;;;;;;9.70;99.90;;;;;;5016239;28;19944;-84
2023/10/31 00:48:50;;;;;;;;;;;9.70;99.90;;;;;;5035969;28;19916;-83
2023/10/31 00:51:15;;;;;;;;;;;9.70;99.90;;;;;;5043083;28;19913;-85
2023/10/31 00:53:41;;;;;;;;;;;9.70;99.90;;;;;;5044690;28;19919;-85
2023/10/31 00:56:07;;;;;;;;;;;9.70;99.90;;;;;;5024704;28;20020;-84
2023/10/31 00:58:33;;;;;;;;;;;9.70;99.90;;;;;;5039982;28;19950;-88
2023/10/31 01:00:59;;;;;;;;;;;9.70;99.90;;;;;;5038740;28;19959;-86
2023/10/31 01:03:24;;;;;;;;;;;9.70;99.90;;;;;;5020012;28;19905;-86
2023/10/31 01:05:50;;;;;;;;;;;9.70;99.90;;;;;;5033844;28;19909;-86
2023/10/31 01:08:15;;;;;;;;;;;9.70;99.90;;;;;;5015739;28;19905;-87
2023/10/31 01:10:41;;;;;;;;;;;9.70;99.90;;;;;;5032497;28;19991;-87
2023/10/31 01:13:07;;;;;;;;;;;9.70;99.90;;;;;;5026400;28;19906;-87
2023/10/31 01:15:32;;;;;;;;;;;9.70;99.90;;;;;;5025042;28;19917;-87
2023/10/31 01:17:58;;;;;;;;;;;9.60;99.90;;;;;;5029661;28;20374;-86
2023/10/31 01:20:24;;;;;;;;;;;9.50;99.90;;;;;;5020836;28;19906;-86
2023/10/31 01:22:49;;;;;;;;;;;9.50;99.90;;;;;;5032368;28;19913;-85
2023/10/31 01:25:15;;;;;;;;;;;9.50;99.90;;;;;;5034711;28;20354;-85
2023/10/31 01:27:42;;;;;;;;;;;9.40;99.90;;;;;;5020950;28;19914;-86
2023/10/31 01:30:07;;;;;;;;;;;9.40;99.90;;;;;;5029240;28;19984;-85
2023/10/31 01:32:33;;;;;;;;;;;9.40;99.90;;;;;;5030411;28;19964;-85
2023/10/31 01:34:59;;;;;;;;;;;9.40;99.90;;;;;;5017771;28;19909;-86
2023/10/31 01:37:24;;;;;;;;;;;9.40;99.90;;;;;;5035980;28;19905;-86
2023/10/31 01:39:50;;;;;;;;;;;9.50;99.90;;;;;;5034547;28;19991;-87
2023/10/31 01:42:16;;;;;;;;;;;9.50;99.90;;;;;;5033743;28;19905;-85
2023/10/31 01:44:42;;;;;;;;;;;9.50;99.90;;;;;;5032590;28;19909;-85
2023/10/31 01:47:08;;;;;;;;;;;9.60;99.90;;;;;;5032711;28;20358;-86
2023/10/31 01:49:35;;;;;;;;;;;9.60;99.90;;;;;;5033096;28;19949;-85
2023/10/31 01:52:01;;;;;;;;;;;9.60;99.90;;;;;;5020418;28;20295;-86
2023/10/31 01:54:26;;;;;;;;;;;9.60;99.90;;;;;;5017740;28;19905;-86
2023/10/31 01:56:56;;;;;;;;;;;9.60;99.90;;;;;;5043693;28;19909;-85
2023/10/31 01:59:22;;;;;;;;;;;9.60;99.90;;;;;;5020881;28;19909;-86
2023/10/31 02:01:48;;;;;;;;;;;9.60;99.90;;;;;;5033456;28;19950;-87
2023/10/31 02:04:13;;;;;;;;;;;9.60;99.90;;;;;;5034406;28;20404;-86
2023/10/31 02:06:39;;;;;;;;;;;9.50;99.90;;;;;;5017706;28;19980;-86
2023/10/31 02:09:05;;;;;;;;;;;9.40;99.90;;;;;;5051656;28;19963;-86
2023/10/31 02:11:34;;;;;;;;;;;9.30;99.90;;;;;;5040759;28;19913;-86
2023/10/31 02:14:00;;;;;;;;;;;9.20;99.90;;;;;;5023717;28;20454;-87
2023/10/31 02:16:26;;;;;;;;;;;9.30;99.90;;;;;;5007498;28;20239;-86
2023/10/31 02:18:51;;;;;;;;;;;9.30;99.90;;;;;;5029050;28;19906;-86
2023/10/31 02:21:18;;;;;;;;;;;9.40;99.90;;;;;;5029233;28;19905;-87
2023/10/31 02:23:55;;;;;;;;;;;9.50;99.90;;;;;;5029878;28;20325;-87
2023/10/31 02:26:21;;;;;;;;;;;9.50;99.90;;;;;;5033105;28;19940;-86
2023/10/31 02:28:47;;;;;;;;;;;9.50;99.90;;;;;;5032988;28;19963;-86
2023/10/31 02:31:12;;;;;;;;;;;9.50;99.90;;;;;;5022792;28;19967;-86
2023/10/31 02:33:38;;;;;;;;;;;9.50;99.90;;;;;;5011671;28;19906;-86
2023/10/31 02:36:03;;;;;;;;;;;9.50;99.90;;;;;;5009082;28;19909;-86
2023/10/31 02:38:29;;;;;;;;;;;9.50;99.90;;;;;;5037152;28;20757;-86
2023/10/31 02:40:55;;;;;;;;;;;9.40;99.90;;;;;;5036655;28;19967;-86
2023/10/31 02:43:20;;;;;;;;;;;9.30;99.90;;;;;;5036063;28;19937;-86
2023/10/31 02:45:46;;;;;;;;;;;9.20;99.90;;;;;;5018330;28;19960;-86
2023/10/31 02:48:12;;;;;;;;;;;9.20;99.90;;;;;;5036019;28;19912;-86
2023/10/31 02:50:37;;;;;;;;;;;9.20;99.90;;;;;;5039879;28;19913;-84
2023/10/31 02:53:03;;;;;;;;;;;9.20;99.90;;;;;;5037829;28;19987;-85
2023/10/31 02:55:28;;;;;;;;;;;9.10;99.90;;;;;;5016324;28;19909;-85
2023/10/31 02:57:54;;;;;;;;;;;9.20;99.90;;;;;;5059073;28;19955;-85
2023/10/31 03:00:20;;;;;;;;;;;9.30;99.90;;;;;;5036947;28;19909;-85
2023/10/31 03:02:45;;;;;;;;;;;9.30;99.90;;;;;;5004439;28;20379;-86
2023/10/31 03:05:11;;;;;;;;;;;9.40;99.90;;;;;;5035498;28;19987;-85
2023/10/31 03:07:37;;;;;;;;;;;9.40;99.90;;;;;;5034519;28;19905;-86
2023/10/31 03:10:02;;;;;;;;;;;9.50;99.90;;;;;;5036056;28;19917;-85
2023/10/31 03:12:28;;;;;;;;;;;9.50;99.90;;;;;;5035558;28;19905;-86
2023/10/31 03:14:54;;;;;;;;;;;9.50;99.90;;;;;;5037668;28;19936;-85
2023/10/31 03:17:19;;;;;;;;;;;9.50;99.90;;;;;;5034737;28;19914;-85
2023/10/31 03:19:45;;;;;;;;;;;9.50;99.90;;;;;;5017551;28;19909;-86
2023/10/31 03:22:11;;;;;;;;;;;9.50;99.90;;;;;;5010994;28;20389;-85
2023/10/31 03:24:36;;;;;;;;;;;9.50;99.90;;;;;;5029266;28;19905;-84
2023/10/31 03:27:02;;;;;;;;;;;9.60;99.90;;;;;;5017292;28;20007;-87
2023/10/31 03:29:28;;;;;;;;;;;9.50;99.90;;;;;;5034939;28;20353;-86
2023/10/31 03:31:53;;;;;;;;;;;9.50;99.90;;;;;;5021168;28;19905;-85
2023/10/31 03:34:19;;;;;;;;;;;9.50;99.90;;;;;;5034052;28;19955;-86
2023/10/31 03:36:44;;;;;;;;;;;9.40;99.90;;;;;;5017347;28;19944;-86
2023/10/31 03:39:10;;;;;;;;;;;9.40;99.90;;;;;;5034400;28;19909;-86
2023/10/31 03:41:36;;;;;;;;;;;9.30;99.90;;;;;;5048158;28;19904;-87
2023/10/31 03:44:01;;;;;;;;;;;9.20;99.90;;;;;;5010951;28;19938;-86
2023/10/31 03:46:27;;;;;;;;;;;9.20;99.90;;;;;;5039659;28;19982;-86
2023/10/31 03:48:52;;;;;;;;;;;9.10;99.90;;;;;;5020042;28;19908;-86
2023/10/31 03:51:18;;;;;;;;;;;8.90;99.90;;;;;;5028995;28;19916;-86
2023/10/31 03:53:44;;;;;;;;;;;8.90;99.90;;;;;;5035043;28;19909;-84
2023/10/31 03:56:09;;;;;;;;;;;8.80;99.90;;;;;;5045453;28;20330;-84
2023/10/31 03:58:35;;;;;;;;;;;8.80;99.90;;;;;;5041416;28;19909;-84
2023/10/31 04:01:01;;;;;;;;;;;8.80;99.90;;;;;;5034445;28;19905;-85
2023/10/31 04:03:26;;;;;;;;;;;8.80;99.90;;;;;;5034623;28;19905;-86
2023/10/31 04:05:52;;;;;;;;;;;8.90;99.90;;;;;;5032978;28;19995;-86
2023/10/31 04:08:17;;;;;;;;;;;8.80;99.90;;;;;;5040732;28;19909;-85
2023/10/31 04:10:43;;;;;;;;;;;8.80;99.90;;;;;;5027400;28;19917;-85
2023/10/31 04:13:09;;;;;;;;;;;8.80;99.90;;;;;;5035711;28;19915;-85
2023/10/31 04:15:35;;;;;;;;;;;8.70;99.90;;;;;;5034672;28;19928;-84
2023/10/31 04:18:00;;;;;;;;;;;8.70;99.90;;;;;;5021801;28;19905;-86
2023/10/31 04:20:26;;;;;;;;;;;8.80;99.90;;;;;;5052001;28;19949;-84
2023/10/31 04:22:52;;;;;;;;;;;8.90;99.90;;;;;;5015011;28;20000;-85
2023/10/31 04:25:17;;;;;;;;;;;9.00;99.90;;;;;;5034415;28;20366;-84
2023/10/31 04:27:43;;;;;;;;;;;9.00;99.90;;;;;;5017291;28;20274;-84
2023/10/31 04:30:09;;;;;;;;;;;9.00;99.90;;;;;;5055630;28;19928;-84
2023/10/31 04:32:35;;;;;;;;;;;9.00;99.90;;;;;;5054654;28;19988;-84
2023/10/31 04:35:01;;;;;;;;;;;8.90;99.90;;;;;;5015671;28;19905;-84
2023/10/31 04:37:26;;;;;;;;;;;8.80;99.90;;;;;;5033748;28;20289;-85
2023/10/31 04:39:52;;;;;;;;;;;8.70;99.90;;;;;;5014632;28;20278;-84
2023/10/31 04:42:20;;;;;;;;;;;8.60;99.90;;;;;;5047468;28;19905;-84
2023/10/31 04:44:46;;;;;;;;;;;8.60;99.90;;;;;;5010443;28;19914;-83
2023/10/31 04:47:11;;;;;;;;;;;8.50;99.90;;;;;;5031455;28;20050;-83
2023/10/31 04:49:37;;;;;;;;;;;8.50;99.90;;;;;;5033273;28;20310;-84
2023/10/31 04:52:03;;;;;;;;;;;8.60;99.90;;;;;;5033129;28;20381;-85
2023/10/31 04:54:28;;;;;;;;;;;8.70;99.90;;;;;;5033388;28;19905;-81
2023/10/31 04:56:54;;;;;;;;;;;8.70;99.90;;;;;;5033464;28;19912;-83
2023/10/31 04:59:19;;;;;;;;;;;8.80;99.90;;;;;;5034523;28;19920;-84
2023/10/31 05:01:49;;;;;;;;;;;8.90;99.90;;;;;;5033867;28;19915;-84
2023/10/31 05:04:15;;;;;;;;;;;9.00;99.90;;;;;;5033878;28;19944;-84
2023/10/31 05:06:41;;;;;;;;;;;9.00;99.90;;;;;;5015305;28;20400;-84
2023/10/31 05:09:06;;;;;;;;;;;9.10;99.90;;;;;;5033577;28;20008;-84
2023/10/31 05:11:32;;;;;;;;;;;9.10;99.90;;;;;;5033744;28;19945;-85
2023/10/31 05:13:58;;;;;;;;;;;9.10;99.90;;;;;;5012984;28;19905;-84
2023/10/31 05:16:23;;;;;;;;;;;9.20;99.90;;;;;;5021040;28;19913;-84
2023/10/31 05:18:49;;;;;;;;;;;9.20;99.90;;;;;;5033312;28;19909;-84
2023/10/31 05:21:18;;;;;;;;;;;9.30;99.90;;;;;;5014849;28;20282;-83
2023/10/31 05:23:44;;;;;;;;;;;9.40;99.90;;;;;;5003023;28;19916;-85
2023/10/31 05:26:09;;;;;;;;;;;9.50;99.90;;;;;;5046584;28;19909;-85
2023/10/31 05:28:35;;;;;;;;;;;9.60;99.90;;;;;;5016556;28;19916;-84
2023/10/31 05:31:04;;;;;;;;;;;9.60;99.90;;;;;;5027952;28;19919;-85
2023/10/31 05:33:29;;;;;;;;;;;9.70;99.90;;;;;;5014686;28;19913;-85
2023/10/31 05:35:58;;;;;;;;;;;9.70;99.90;;;;;;5003206;28;19919;-86
2023/10/31 05:38:24;;;;;;;;;;;9.70;99.90;;;;;;5021467;28;19905;-83
2023/10/31 05:40:50;;;;;;;;;;;9.80;99.90;;;;;;4999013;28;19964;-84
2023/10/31 05:43:15;;;;;;;;;;;9.80;99.90;;;;;;5025349;28;19981;-83
2023/10/31 05:45:41;;;;;;;;;;;9.80;99.90;;;;;;5009212;28;20322;-82
2023/10/31 05:48:07;;;;;;;;;;;9.90;99.90;;;;;;5020708;28;19909;-83
2023/10/31 05:50:32;;;;;;;;;;;10.00;99.90;;;;;;4999134;28;19917;-82
2023/10/31 05:52:58;;;;;;;;;;;10.00;99.90;;;;;;5013876;28;19906;-84
2023/10/31 05:55:24;;;;;;;;;;;10.10;99.90;;;;;;5015340;28;19906;-85
2023/10/31 05:57:50;;;;;;;;;;;10.10;99.90;;;;;;5013857;28;19978;-84
2023/10/31 06:00:24;;;;;;;;;;;10.20;99.90;;;;;;5016843;28;19917;-84
2023/10/31 06:02:50;;;;;;;;;;;10.20;99.90;;;;;;5014934;28;20393;-85
2023/10/31 06:05:16;;;;;;;;;;;10.30;99.90;;;;;;5043851;28;19912;-85
2023/10/31 06:07:42;;;;;;;;;;;10.40;99.90;;;;;;5026528;28;19916;-83
2023/10/31 06:10:07;;;;;;;;;;;10.40;99.90;;;;;;5015898;28;19913;-81
2023/10/31 06:12:33;;;;;;;;;;;10.50;99.90;;;;;;5015856;28;19956;-83
2023/10/31 06:14:59;;;;;;;;;;;10.60;99.90;;;;;;5015631;28;20357;-84
2023/10/31 06:17:26;;;;;;;;;;;10.70;99.90;;;;;;5020258;28;20740;-82
2023/10/31 06:19:51;;;;;;;;;;;10.80;99.90;;;;;;5017258;28;19951;-81
2023/10/31 06:22:17;;;;;;;;;;;10.80;99.90;;;;;;5016704;28;19909;-84
2023/10/31 06:24:42;;;;;;;;;;;10.80;99.90;;;;;;5014555;28;20394;-85
2023/10/31 06:27:08;;;;;;;;;;;10.80;99.90;;;;;;5036732;28;20405;-85
2023/10/31 06:29:34;;;;;;;;;;;10.80;99.90;;;;;;5039676;28;20243;-85
2023/10/31 06:32:01;;;;;;;;;;;10.80;99.90;;;;;;5040290;28;19920;-85
2023/10/31 06:34:26;;;;;;;;;;;10.90;99.90;;;;;;5039175;28;19984;-85
2023/10/31 06:36:52;;;;;;;;;;;11.10;99.90;;;;;;5043048;28;19940;-85
2023/10/31 06:39:18;;;;;;;;;;;11.10;99.90;;;;;;5021434;28;20255;-85
2023/10/31 06:41:43;;;;;;;;;;;11.30;99.90;;;;;;5019693;28;20325;-85
2023/10/31 06:44:09;;;;;;;;;;;11.30;99.90;;;;;;5038192;28;19931;-85
2023/10/31 06:46:35;;;;;;;;;;;11.30;99.90;;;;;;5023245;28;20033;-84
2023/10/31 06:49:00;;;;;;;;;;;11.40;99.90;;;;;;5036168;28;20277;-84
2023/10/31 06:51:26;;;;;;;;;;;11.30;99.90;;;;;;5035600;28;19917;-86
2023/10/31 06:53:52;;;;;;;;;;;11.30;99.90;;;;;;5035822;28;19905;-85
2023/10/31 06:56:17;;;;;;;;;;;11.40;99.90;;;;;;5035790;28;20389;-86
2023/10/31 06:58:43;;;;;;;;;;;11.40;99.90;;;;;;5036284;28;19959;-86
2023/10/31 07:01:09;;;;;;;;;;;11.40;99.90;;;;;;5045829;28;19962;-84
2023/10/31 07:03:35;;;;;;;;;;;11.40;99.90;;;;;;5024945;28;19909;-85
2023/10/31 07:06:01;;;;;;;;;;;11.50;99.90;;;;;;5030729;28;20263;-85
2023/10/31 07:08:26;;;;;;;;;;;11.50;99.90;;;;;;5027564;28;20350;-86
2023/10/31 07:10:52;;;;;;;;;;;11.50;99.90;;;;;;5035782;28;20287;-85
2023/10/31 07:13:18;;;;;;;;;;;11.60;99.90;;;;;;5029222;28;19912;-85
2023/10/31 07:15:43;;;;;;;;;;;11.80;99.90;;;;;;5035157;28;19996;-87
2023/10/31 07:18:09;;;;;;;;;;;11.80;99.90;;;;;;5035086;28;20441;-85
2023/10/31 07:20:35;;;;;;;;;;;11.80;99.90;;;;;;5049262;28;20297;-84
2023/10/31 07:23:01;;;;;;;;;;;11.80;99.90;;;;;;5023420;28;19915;-86
2023/10/31 07:25:26;;;;;;;;;;;11.90;99.90;;;;;;5055670;28;19911;-87
2023/10/31 07:27:52;;;;;;;;;;;12.00;99.90;;;;;;5043462;28;19905;-88
2023/10/31 07:30:17;;;;;;;;;;;12.10;99.90;;;;;;5012425;28;19917;-86
2023/10/31 07:32:43;;;;;;;;;;;12.10;99.90;;;;;;5039901;28;19905;-85
2023/10/31 07:35:09;;;;;;;;;;;12.10;99.90;;;;;;5025296;28;19909;-85
2023/10/31 07:37:34;;;;;;;;;;;12.00;99.90;;;;;;5021454;28;19999;-85
2023/10/31 07:40:00;;;;;;;;;;;11.90;99.90;;;;;;5052403;28;19924;-84
2023/10/31 07:42:26;;;;;;;;;;;11.80;99.90;;;;;;5031888;28;19906;-86
2023/10/31 07:44:52;;;;;;;;;;;11.70;99.90;;;;;;5007186;28;20363;-85
2023/10/31 07:47:18;;;;;;;;;;;11.70;99.90;;;;;;5035071;28;19916;-86
2023/10/31 07:49:43;;;;;;;;;;;11.80;99.90;;;;;;5035157;28;19905;-84
2023/10/31 07:52:09;;;;;;;;;;;11.80;99.90;;;;;;5034490;28;19916;-86
2023/10/31 07:54:38;;;;;;;;;;;11.80;99.90;;;;;;5018456;28;19909;-86
2023/10/31 07:57:04;;;;;;;;;;;11.70;99.90;;;;;;5035187;28;19905;-85
2023/10/31 07:59:33;;;;;;;;;;;11.80;99.90;;;;;;5034446;28;20791;-85
2023/10/31 08:01:58;;;;;;;;;;;11.80;99.90;;;;;;5034384;28;19912;-86
2023/10/31 08:04:24;;;;;;;;;;;12.00;99.90;;;;;;5015571;28;20003;-85
2023/10/31 08:06:50;;;;;;;;;;;12.20;99.90;;;;;;5034338;28;20008;-86
2023/10/31 08:09:16;;;;;;;;;;;12.50;99.90;;;;;;5034106;28;19924;-86
2023/10/31 08:11:41;;;;;;;;;;;12.70;99.90;;;;;;5029964;28;19920;-86
2023/10/31 08:14:07;;;;;;;;;;;12.80;99.90;;;;;;5034337;28;19909;-86
2023/10/31 08:16:33;;;;;;;;;;;13.00;99.90;;;;;;5042679;28;19909;-84
2023/10/31 08:18:59;;;;;;;;;;;13.10;99.90;;;;;;5040580;28;19909;-86
2023/10/31 08:21:28;;;;;;;;;;;13.10;99.90;;;;;;5034478;28;19913;-87
2023/10/31 08:23:54;;;;;;;;;;;13.00;99.90;;;;;;5035710;28;19956;-86
2023/10/31 08:26:19;;;;;;;;;;;12.90;99.90;;;;;;5022981;28;19916;-86
2023/10/31 08:28:45;;;;;;;;;;;12.90;99.90;;;;;;5036229;28;19905;-87
2023/10/31 08:31:11;;;;;;;;;;;12.90;99.90;;;;;;5034703;28;20392;-86
2023/10/31 08:33:36;;;;;;;;;;;12.90;99.90;;;;;;5020309;28;19909;-87
2023/10/31 08:36:02;;;;;;;;;;;12.80;99.90;;;;;;5024076;28;19988;-86
2023/10/31 08:38:28;;;;;;;;;;;12.70;99.90;;;;;;5005315;28;19952;-86
2023/10/31 08:40:54;;;;;;;;;;;12.70;99.90;;;;;;5051639;28;20422;-86
2023/10/31 08:43:19;;;;;;;;;;;12.70;99.90;;;;;;5025177;28;19916;-86
2023/10/31 08:45:45;;;;;;;;;;;12.70;99.90;;;;;;5016433;28;20270;-86
2023/10/31 08:48:11;;;;;;;;;;;12.80;99.90;;;;;;5034007;28;19905;-86
2023/10/31 08:50:37;;;;;;;;;;;12.90;99.90;;;;;;5042314;28;19920;-86
2023/10/31 08:53:02;;;;;;;;;;;12.90;99.90;;;;;;5045189;28;19908;-84
2023/10/31 08:55:28;;;;;;;;;;;12.80;99.90;;;;;;5033568;28;20469;-86
2023/10/31 08:57:54;;;;;;;;;;;12.70;99.90;;;;;;5018050;28;19905;-85
2023/10/31 09:00:19;;;;;;;;;;;12.70;99.90;;;;;;5016532;28;19905;-86
2023/10/31 09:02:46;;;;;;;;;;;12.70;99.90;;;;;;5041680;28;19909;-88
2023/10/31 09:05:11;;;;;;;;;;;12.80;99.90;;;;;;5037865;28;19947;-86
2023/10/31 09:07:37;;;;;;;;;;;12.70;99.90;;;;;;5024177;28;19905;-86
2023/10/31 09:10:05;;;;;;;;;;;12.60;99.90;;;;;;5041428;28;19913;-87
2023/10/31 09:12:30;;;;;;;;;;;12.40;99.90;;;;;;5048711;28;19920;-88
2023/10/31 09:14:56;;;;;;;;;;;12.70;99.90;;;;;;5038421;28;19925;-86
2023/10/31 09:17:22;;;;;;;;;;;12.90;99.90;;;;;;5035342;28;19905;-87
2023/10/31 09:19:47;;;;;;;;;;;12.90;99.90;;;;;;5026934;28;19927;-86
2023/10/31 09:22:13;;;;;;;;;;;12.90;99.90;;;;;;5051986;28;19905;-87
2023/10/31 09:24:40;;;;;;;;;;;13.00;99.90;;;;;;5037450;28;19909;-86
2023/10/31 09:27:05;;;;;;;;;;;13.20;99.90;;;;;;5014041;28;19920;-88
2023/10/31 09:29:31;;;;;;;;;;;13.80;99.80;;;;;;5004037;28;19905;-86
2023/10/31 09:31:57;;;;;;;;;;;13.90;99.80;;;;;;5015108;28;20008;-86
2023/10/31 09:34:22;;;;;;;;;;;14.10;99.00;;;;;;5034495;28;19912;-88
2023/10/31 09:36:48;;;;;;;;;;;14.00;98.70;;;;;;5016499;28;19955;-87
2023/10/31 09:39:14;;;;;;;;;;;13.90;98.70;;;;;;5034401;28;19948;-86
2023/10/31 09:41:39;;;;;;;;;;;13.90;98.60;;;;;;5033580;28;20779;-86
2023/10/31 09:44:05;;;;;;;;;;;13.70;98.30;;;;;;5040178;28;19916;-85
2023/10/31 09:46:31;;;;;;;;;;;13.60;98.50;;;;;;5023348;28;19905;-87
2023/10/31 09:48:57;;;;;;;;;;;13.40;98.50;;;;;;5024161;28;20360;-86
2023/10/31 09:51:22;;;;;;;;;;;13.40;98.50;;;;;;5041347;28;20293;-86
2023/10/31 09:53:49;;;;;;;;;;;13.40;98.50;;;;;;5040332;28;20391;-86
2023/10/31 09:56:16;;;;;;;;;;;13.20;98.40;;;;;;5039875;28;19916;-88
2023/10/31 09:58:42;;;;;;;;;;;13.10;98.40;;;;;;5014279;28;19910;-88
2023/10/31 10:01:08;;;;;;;;;;;13.20;98.80;;;;;;5022648;28;19912;-87
2023/10/31 10:03:34;;;;;;;;;;;13.30;98.70;;;;;;5040394;28;19905;-88
2023/10/31 10:05:59;;;;;;;;;;;13.30;98.50;;;;;;5022809;28;19905;-87
2023/10/31 10:08:25;;;;;;;;;;;13.20;98.40;;;;;;5031352;28;20438;-87
2023/10/31 10:10:53;;;;;;;;;;;13.20;98.50;;;;;;5040244;28;19913;-87
2023/10/31 10:13:22;;;;;;;;;;;13.10;98.40;;;;;;5049943;28;20303;-87
2023/10/31 10:15:49;;;;;;;;;;;12.90;98.20;;;;;;5040391;28;19956;-87
2023/10/31 10:18:25;;;;;;;;;;;12.70;98.40;;;;;;5022516;28;19944;-88
2023/10/31 10:20:57;;;;;;;;;;;12.50;98.50;;;;;;5022457;28;19913;-86
2023/10/31 10:23:23;;;;;;;;;;;12.50;98.80;;;;;;5045687;28;19929;-86
2023/10/31 10:25:49;;;;;;;;;;;12.40;98.60;;;;;;5043564;28;19909;-86
2023/10/31 10:28:15;;;;;;;;;;;12.40;98.60;;;;;;5029505;28;19904;-88
2023/10/31 10:30:41;;;;;;;;;;;12.40;98.70;;;;;;5054374;28;19928;-86
2023/10/31 10:33:06;;;;;;;;;;;12.50;98.60;;;;;;5049799;28;19920;-88
2023/10/31 10:35:34;;;;;;;;;;;12.50;98.70;;;;;;5054231;28;19976;-88
2023/10/31 10:37:59;;;;;;;;;;;12.50;98.70;;;;;;5039974;28;19952;-89
2023/10/31 10:40:25;;;;;;;;;;;12.50;98.80;;;;;;5059194;28;20285;-87
2023/10/31 10:42:56;;;;;;;;;;;12.50;98.70;;;;;;5049181;28;19936;-88
2023/10/31 10:45:23;;;;;;;;;;;12.50;98.70;;;;;;5026103;28;19905;-88
2023/10/31 10:47:49;;;;;;;;;;;12.50;98.80;;;;;;5045271;28;19998;-88
2023/10/31 10:50:18;;;;;;;;;;;12.50;98.70;;;;;;5057634;28;20472;-87
2023/10/31 10:53:10;;;;;;;;;;;12.40;98.70;;;;;;5057396;28;20448;-89
2023/10/31 10:55:39;;;;;;;;;;;12.40;98.80;;;;;;5018387;28;19953;-87
2023/10/31 10:58:05;;;;;;;;;;;12.40;98.90;;;;;;5029880;28;19905;-87
2023/10/31 11:00:31;;;;;;;;;;;12.40;98.90;;;;;;5026679;28;19912;-87
2023/10/31 11:02:57;;;;;;;;;;;12.50;99.00;;;;;;5041649;28;19908;-88
2023/10/31 11:05:23;;;;;;;;;;;12.60;99.00;;;;;;5041103;28;20374;-88
2023/10/31 11:07:49;;;;;;;;;;;12.60;99.00;;;;;;5011970;28;19977;-88
2023/10/31 11:10:16;;;;;;;;;;;12.70;99.00;;;;;;5033442;28;20418;-86
2023/10/31 11:12:43;;;;;;;;;;;12.70;98.90;;;;;;5063472;28;20389;-87
2023/10/31 11:15:09;;;;;;;;;;;12.80;98.90;;;;;;5037850;28;19921;-87
2023/10/31 11:17:42;;;;;;;;;;;12.80;98.90;;;;;;5017280;28;20374;-87
2023/10/31 11:20:10;;;;;;;;;;;12.90;98.80;;;;;;5036556;28;19912;-87
2023/10/31 11:22:43;;;;;;;;;;;12.80;98.70;;;;;;5036080;28;19952;-87
2023/10/31 11:25:12;;;;;;;;;;;12.80;98.80;;;;;;5031518;28;19921;-87
2023/10/31 11:27:38;;;;;;;;;;;12.80;98.80;;;;;;5027785;28;19912;-87
2023/10/31 11:30:07;;;;;;;;;;;12.70;98.70;;;;;;5038132;28;20358;-88
2023/10/31 11:32:35;;;;;;;;;;;12.70;98.70;;;;;;5046077;28;19905;-86
2023/10/31 11:35:02;;;;;;;;;;;12.70;98.60;;;;;;5034935;28;19912;-87
2023/10/31 11:37:33;;;;;;;;;;;12.60;98.60;;;;;;5034818;28;20007;-86
2023/10/31 11:40:18;;;;;;;;;;;12.60;98.60;;;;;;5035624;28;20380;-87
2023/10/31 11:42:46;;;;;;;;;;;12.60;98.60;;;;;;5035593;28;19912;-87
2023/10/31 11:45:12;;;;;;;;;;;12.60;98.70;;;;;;5037065;28;19951;-87
2023/10/31 11:47:47;;;;;;;;;;;12.70;98.80;;;;;;5038402;28;20317;-90
2023/10/31 11:50:13;;;;;;;;;;;12.70;98.80;;;;;;5035549;28;19955;-87
2023/10/31 11:52:39;;;;;;;;;;;12.80;98.80;;;;;;5042793;28;19908;-87
2023/10/31 11:55:08;;;;;;;;;;;12.80;98.80;;;;;;5048036;28;19908;-88
2023/10/31 11:57:34;;;;;;;;;;;12.90;98.70;;;;;;5044355;28;19905;-88
2023/10/31 12:00:00;;;;;;;;;;;12.90;98.70;;;;;;5020274;28;19920;-87
2023/10/31 12:02:25;;;;;;;;;;;12.90;98.80;;;;;;5018196;28;19948;-86
2023/10/31 12:04:51;;;;;;;;;;;12.90;98.90;;;;;;5032934;28;19928;-89
2023/10/31 12:07:18;;;;;;;;;;;12.90;99.30;;;;;;5041810;28;19906;-87
2023/10/31 12:09:47;;;;;;;;;;;12.90;99.00;;;;;;5035383;28;19949;-85
2023/10/31 12:12:13;;;;;;;;;;;12.80;99.00;;;;;;5033941;28;19913;-86
2023/10/31 12:14:39;;;;;;;;;;;12.60;99.10;;;;;;5054643;28;19995;-87
2023/10/31 12:17:06;;;;;;;;;;;12.50;99.20;;;;;;5037116;28;19921;-86
2023/10/31 12:19:32;;;;;;;;;;;12.30;99.40;;;;;;5036047;28;19930;-85
2023/10/31 12:21:58;;;;;;;;;;;12.10;99.70;;;;;;5029678;28;19912;-87
2023/10/31 12:24:24;;;;;;;;;;;11.80;99.90;;;;;;5059976;28;19932;-86
2023/10/31 12:26:51;;;;;;;;;;;11.70;99.90;;;;;;5038137;28;19912;-86
2023/10/31 12:29:18;;;;;;;;;;;11.50;99.90;;;;;;5036312;28;19905;-86
2023/10/31 12:31:45;;;;;;;;;;;11.40;99.90;;;;;;5022647;28;20023;-86
2023/10/31 12:34:11;;;;;;;;;;;11.30;99.90;;;;;;5046172;28;19913;-85
2023/10/31 12:36:37;;;;;;;;;;;11.20;99.90;;;;;;5025349;28;19954;-86
2023/10/31 12:39:04;;;;;;;;;;;11.10;99.90;;;;;;5035756;28;19905;-86
2023/10/31 12:41:30;;;;;;;;;;;11.00;99.90;;;;;;5037240;28;20025;-86
2023/10/31 12:43:55;;;;;;;;;;;11.00;99.90;;;;;;5013483;28;20000;-87
2023/10/31 12:46:40;;;;;;;;;;;10.90;99.90;;;;;;5018572;28;19928;-88
2023/10/31 12:49:15;;;;;;;;;;;10.80;99.90;;;;;;5037961;28;19916;-86
2023/10/31 12:52:00;;;;;;;;;;;10.80;99.90;;;;;;5035952;28;20297;-86
2023/10/31 12:54:30;;;;;;;;;;;10.70;99.90;;;;;;5007055;28;19909;-87
2023/10/31 12:56:59;;;;;;;;;;;10.70;99.90;;;;;;5020364;28;19928;-86
2023/10/31 12:59:24;;;;;;;;;;;10.60;99.90;;;;;;5032635;28;19910;-87
2023/10/31 13:01:50;;;;;;;;;;;10.60;99.90;;;;;;5028239;28;19893;-86
2023/10/31 13:04:24;;;;;;;;;;;10.50;99.90;;;;;;5036665;28;20313;-87
2023/10/31 13:06:56;;;;;;;;;;;10.50;99.90;;;;;;5034498;28;20385;-86
2023/10/31 13:09:22;;;;;;;;;;;10.40;99.90;;;;;;5037254;28;19940;-85
2023/10/31 13:11:48;;;;;;;;;;;10.30;99.90;;;;;;5039914;28;19924;-86
2023/10/31 13:14:14;;;;;;;;;;;10.20;99.90;;;;;;5039854;28;19917;-87
2023/10/31 13:16:39;;;;;;;;;;;10.10;99.90;;;;;;5042418;28;20022;-86
2023/10/31 13:19:05;;;;;;;;;;;10.10;99.90;;;;;;5021891;28;19916;-86
2023/10/31 13:21:31;;;;;;;;;;;10.10;99.90;;;;;;5034999;28;19905;-86
2023/10/31 13:23:56;;;;;;;;;;;10.00;99.90;;;;;;5006251;28;19905;-86
2023/10/31 13:26:22;;;;;;;;;;;9.90;99.90;;;;;;5037203;28;20000;-85
2023/10/31 13:28:47;;;;;;;;;;;9.90;99.90;;;;;;5025588;28;19929;-84
2023/10/31 13:31:14;;;;;;;;;;;9.80;99.90;;;;;;5025356;28;19936;-89
2023/10/31 13:33:40;;;;;;;;;;;9.70;99.90;;;;;;5004347;28;19913;-88
2023/10/31 13:36:05;;;;;;;;;;;9.70;99.90;;;;;;5017244;28;19909;-88
2023/10/31 13:38:31;;;;;;;;;;;9.70;99.90;;;;;;5015998;28;19905;-87
2023/10/31 13:40:57;;;;;;;;;;;9.80;99.90;;;;;;5016158;28;20022;-89
2023/10/31 13:43:22;;;;;;;;;;;9.80;99.90;;;;;;5034051;28;20274;-87
2023/10/31 13:45:48;;;;;;;;;;;9.80;99.90;;;;;;5033874;28;19978;-87
2023/10/31 13:48:14;;;;;;;;;;;9.80;99.90;;;;;;5034052;28;19905;-86
2023/10/31 13:50:41;;;;;;;;;;;9.90;99.90;;;;;;5025916;28;19920;-89
2023/10/31 13:53:07;;;;;;;;;;;9.90;99.90;;;;;;5035619;28;19992;-87
2023/10/31 13:55:33;;;;;;;;;;;9.90;99.90;;;;;;5017174;28;19999;-86
2023/10/31 13:57:59;;;;;;;;;;;9.90;99.90;;;;;;5054579;28;19913;-86
2023/10/31 14:00:24;;;;;;;;;;;9.80;99.90;;;;;;5043028;28;20424;-88
2023/10/31 14:02:50;;;;;;;;;;;9.80;99.90;;;;;;5016839;28;20363;-87
2023/10/31 14:05:16;;;;;;;;;;;9.70;99.90;;;;;;5018819;28;19909;-87
2023/10/31 14:07:42;;;;;;;;;;;9.70;99.90;;;;;;5021522;28;19913;-87
2023/10/31 14:10:07;;;;;;;;;;;9.70;99.90;;;;;;5017600;28;19932;-89
2023/10/31 14:12:33;;;;;;;;;;;9.70;99.90;;;;;;5034487;28;19905;-88
2023/10/31 14:14:59;;;;;;;;;;;9.80;99.90;;;;;;5026450;28;19941;-87
2023/10/31 14:17:24;;;;;;;;;;;9.80;99.90;;;;;;5032142;28;19912;-87